sensor_id;sensor_type;location;lat;lon;timestamp;pressure;altitude;pressure_sealevel;temperature;humidity
70407;BME280;57821;52.202;0.154;2023-04-27T00:01:37;101929.25;;;8.84;61.25
70407;BME280;57821;52.202;0.154;2023-04-27T00:04:04;101925.75;;;8.82;61.13
70407;BME280;57821;52.202;0.154;2023-04-27T00:06:31;101920.53;;;8.80;61.36
70407;BME280;57821;52.202;0.154;2023-04-27T00:08:57;101928.28;;;8.80;60.91
70407;BME280;57821;52.202;0.154;2023-04-27T00:11:24;101929.16;;;8.79;61.60
70407;BME280;57821;52.202;0.154;2023-04-27T00:13:50;101928.28;;;8.80;61.19
70407;BME280;57821;52.202;0.154;2023-04-27T00:16:17;101930.88;;;8.79;61.13
70407;BME280;57821;52.202;0.154;2023-04-27T00:18:43;101935.22;;;8.81;61.63
70407;BME280;57821;52.202;0.154;2023-04-27T00:21:10;101934.34;;;8.81;61.59
70407;BME280;57821;52.202;0.154;2023-04-27T00:23:36;101936.09;;;8.82;61.55
70407;BME280;57821;52.202;0.154;2023-04-27T00:26:03;101927.44;;;8.81;62.00
70407;BME280;57821;52.202;0.154;2023-04-27T00:28:29;101931.78;;;8.82;61.81
70407;BME280;57821;52.202;0.154;2023-04-27T00:30:57;101926.66;;;8.84;62.04
70407;BME280;57821;52.202;0.154;2023-04-27T00:33:26;101929.22;;;8.82;61.95
70407;BME280;57821;52.202;0.154;2023-04-27T00:35:52;101922.28;;;8.81;62.36
70407;BME280;57821;52.202;0.154;2023-04-27T00:38:19;101908.47;;;8.81;62.46
70407;BME280;57821;52.202;0.154;2023-04-27T00:40:46;101908.47;;;8.81;62.64
70407;BME280;57821;52.202;0.154;2023-04-27T00:43:13;101913.63;;;8.79;62.19
70407;BME280;57821;52.202;0.154;2023-04-27T00:45:41;101905.84;;;8.78;62.45
70407;BME280;57821;52.202;0.154;2023-04-27T00:48:09;101895.34;;;8.72;62.35
70407;BME280;57821;52.202;0.154;2023-04-27T00:50:36;101906.63;;;8.75;62.35
70407;BME280;57821;52.202;0.154;2023-04-27T00:53:04;101905.75;;;8.75;62.71
70407;BME280;57821;52.202;0.154;2023-04-27T00:55:31;101899.66;;;8.71;63.28
70407;BME280;57821;52.202;0.154;2023-04-27T00:57:57;101903.16;;;8.73;62.86
70407;BME280;57821;52.202;0.154;2023-04-27T01:00:24;101898.00;;;8.73;63.08
70407;BME280;57821;52.202;0.154;2023-04-27T01:02:51;101902.28;;;8.74;63.43
70407;BME280;57821;52.202;0.154;2023-04-27T01:05:18;101898.84;;;8.74;63.63
70407;BME280;57821;52.202;0.154;2023-04-27T01:07:45;101892.81;;;8.73;63.82
70407;BME280;57821;52.202;0.154;2023-04-27T01:10:11;101879.84;;;8.72;64.03
70407;BME280;57821;52.202;0.154;2023-04-27T01:12:38;101877.31;;;8.73;64.22
70407;BME280;57821;52.202;0.154;2023-04-27T01:15:05;101883.31;;;8.72;64.15
70407;BME280;57821;52.202;0.154;2023-04-27T01:17:32;101883.31;;;8.72;64.25
70407;BME280;57821;52.202;0.154;2023-04-27T01:19:58;101879.81;;;8.70;64.42
70407;BME280;57821;52.202;0.154;2023-04-27T01:22:25;101870.28;;;8.69;64.33
70407;BME280;57821;52.202;0.154;2023-04-27T01:24:51;101872.84;;;8.66;64.81
70407;BME280;57821;52.202;0.154;2023-04-27T01:27:18;101870.25;;;8.66;64.30
70407;BME280;57821;52.202;0.154;2023-04-27T01:29:45;101871.91;;;8.64;65.05
70407;BME280;57821;52.202;0.154;2023-04-27T01:32:11;101869.28;;;8.62;64.96
70407;BME280;57821;52.202;0.154;2023-04-27T01:34:37;101864.06;;;8.59;64.88
70407;BME280;57821;52.202;0.154;2023-04-27T01:37:04;101868.31;;;8.56;65.24
70407;BME280;57821;52.202;0.154;2023-04-27T01:39:30;101866.56;;;8.55;64.54
70407;BME280;57821;52.202;0.154;2023-04-27T01:41:59;101868.16;;;8.50;65.47
70407;BME280;57821;52.202;0.154;2023-04-27T01:44:25;101865.59;;;8.51;65.71
70407;BME280;57821;52.202;0.154;2023-04-27T01:46:53;101862.13;;;8.49;65.35
70407;BME280;57821;52.202;0.154;2023-04-27T01:49:19;101863.00;;;8.50;65.47
70407;BME280;57821;52.202;0.154;2023-04-27T01:51:46;101858.66;;;8.50;66.15
70407;BME280;57821;52.202;0.154;2023-04-27T01:54:14;101865.59;;;8.50;66.11
70407;BME280;57821;52.202;0.154;2023-04-27T01:56:42;101869.00;;;8.49;66.38
70407;BME280;57821;52.202;0.154;2023-04-27T01:59:09;101863.78;;;8.47;66.48
70407;BME280;57821;52.202;0.154;2023-04-27T02:01:35;101869.75;;;8.45;66.24
70407;BME280;57821;52.202;0.154;2023-04-27T02:04:02;101867.91;;;8.39;66.63
70407;BME280;57821;52.202;0.154;2023-04-27T02:06:29;101877.44;;;8.42;66.24
70407;BME280;57821;52.202;0.154;2023-04-27T02:08:55;101883.41;;;8.38;66.49
70407;BME280;57821;52.202;0.154;2023-04-27T02:11:22;101876.38;;;8.34;66.98
70407;BME280;57821;52.202;0.154;2023-04-27T02:13:49;101874.66;;;8.33;66.80
70407;BME280;57821;52.202;0.154;2023-04-27T02:16:15;101872.78;;;8.29;67.55
70407;BME280;57821;52.202;0.154;2023-04-27T02:18:42;101873.63;;;8.26;67.79
70407;BME280;57821;52.202;0.154;2023-04-27T02:21:09;101882.16;;;8.23;67.86
70407;BME280;57821;52.202;0.154;2023-04-27T02:23:37;101881.22;;;8.21;68.17
70407;BME280;57821;52.202;0.154;2023-04-27T02:26:04;101881.22;;;8.20;68.13
70407;BME280;57821;52.202;0.154;2023-04-27T02:28:30;101874.25;;;8.17;68.15
70407;BME280;57821;52.202;0.154;2023-04-27T02:30:58;101878.50;;;8.15;67.77
70407;BME280;57821;52.202;0.154;2023-04-27T02:33:25;101878.44;;;8.12;68.74
70407;BME280;57821;52.202;0.154;2023-04-27T02:35:51;101880.09;;;8.09;68.86
70407;BME280;57821;52.202;0.154;2023-04-27T02:38:19;101881.72;;;8.05;68.56
70407;BME280;57821;52.202;0.154;2023-04-27T02:40:45;101878.19;;;8.02;68.85
70407;BME280;57821;52.202;0.154;2023-04-27T02:43:12;101884.97;;;7.98;69.06
70407;BME280;57821;52.202;0.154;2023-04-27T02:45:38;101885.75;;;7.94;69.16
70407;BME280;57821;52.202;0.154;2023-04-27T02:48:05;101892.50;;;7.89;69.49
70407;BME280;57821;52.202;0.154;2023-04-27T02:50:32;101885.53;;;7.85;69.07
70407;BME280;57821;52.202;0.154;2023-04-27T02:52:59;101883.69;;;7.81;69.21
70407;BME280;57821;52.202;0.154;2023-04-27T02:55:26;101883.56;;;7.76;68.92
70407;BME280;57821;52.202;0.154;2023-04-27T02:57:52;101880.03;;;7.73;69.13
70407;BME280;57821;52.202;0.154;2023-04-27T03:00:19;101884.22;;;7.68;69.94
70407;BME280;57821;52.202;0.154;2023-04-27T03:02:45;101880.66;;;7.64;69.90
70407;BME280;57821;52.202;0.154;2023-04-27T03:05:12;101879.69;;;7.59;69.84
70407;BME280;57821;52.202;0.154;2023-04-27T03:07:38;101876.06;;;7.53;69.88
70407;BME280;57821;52.202;0.154;2023-04-27T03:10:05;101880.28;;;7.49;69.38
70407;BME280;57821;52.202;0.154;2023-04-27T03:12:32;101871.50;;;7.42;70.28
70407;BME280;57821;52.202;0.154;2023-04-27T03:14:58;101879.16;;;7.39;70.41
70407;BME280;57821;52.202;0.154;2023-04-27T03:17:25;101888.47;;;7.34;70.93
70407;BME280;57821;52.202;0.154;2023-04-27T03:19:52;101882.41;;;7.32;69.87
70407;BME280;57821;52.202;0.154;2023-04-27T03:22:18;101884.00;;;7.27;71.35
70407;BME280;57821;52.202;0.154;2023-04-27T03:24:45;101878.78;;;7.26;70.80
70407;BME280;57821;52.202;0.154;2023-04-27T03:27:11;101876.97;;;7.23;71.75
70407;BME280;57821;52.202;0.154;2023-04-27T03:29:38;101876.09;;;7.23;71.35
70407;BME280;57821;52.202;0.154;2023-04-27T03:32:05;101875.22;;;7.22;72.05
70407;BME280;57821;52.202;0.154;2023-04-27T03:34:31;101882.13;;;7.23;72.37
70407;BME280;57821;52.202;0.154;2023-04-27T03:36:58;101875.22;;;7.22;72.12
70407;BME280;57821;52.202;0.154;2023-04-27T03:39:24;101872.75;;;7.25;72.81
70407;BME280;57821;52.202;0.154;2023-04-27T03:41:51;101874.56;;;7.28;73.07
70407;BME280;57821;52.202;0.154;2023-04-27T03:44:17;101870.34;;;7.31;73.21
70407;BME280;57821;52.202;0.154;2023-04-27T03:46:45;101872.16;;;7.35;73.40
70407;BME280;57821;52.202;0.154;2023-04-27T03:49:11;101874.00;;;7.39;72.64
70407;BME280;57821;52.202;0.154;2023-04-27T03:51:38;101869.84;;;7.45;73.12
70407;BME280;57821;52.202;0.154;2023-04-27T03:54:05;101864.78;;;7.49;74.01
70407;BME280;57821;52.202;0.154;2023-04-27T03:56:31;101860.63;;;7.54;73.43
70407;BME280;57821;52.202;0.154;2023-04-27T03:58:58;101861.56;;;7.58;73.74
70407;BME280;57821;52.202;0.154;2023-04-27T04:01:31;101863.44;;;7.63;74.17
70407;BME280;57821;52.202;0.154;2023-04-27T04:03:58;101857.47;;;7.66;73.62
70407;BME280;57821;52.202;0.154;2023-04-27T04:06:25;101854.13;;;7.70;73.43
70407;BME280;57821;52.202;0.154;2023-04-27T04:08:51;101847.31;;;7.72;74.08
70407;BME280;57821;52.202;0.154;2023-04-27T04:11:18;101843.94;;;7.74;73.63
70407;BME280;57821;52.202;0.154;2023-04-27T04:13:45;101854.28;;;7.76;73.56
70407;BME280;57821;52.202;0.154;2023-04-27T04:16:11;101855.16;;;7.76;74.07
70407;BME280;57821;52.202;0.154;2023-04-27T04:18:38;101844.00;;;7.77;74.10
70407;BME280;57821;52.202;0.154;2023-04-27T04:21:05;101842.31;;;7.78;73.74
70407;BME280;57821;52.202;0.154;2023-04-27T04:23:31;101844.94;;;7.81;73.93
70407;BME280;57821;52.202;0.154;2023-04-27T04:25:58;101838.91;;;7.80;73.41
70407;BME280;57821;52.202;0.154;2023-04-27T04:28:29;101837.19;;;7.81;73.75
70407;BME280;57821;52.202;0.154;2023-04-27T04:30:55;101833.78;;;7.82;74.25
70407;BME280;57821;52.202;0.154;2023-04-27T04:33:22;101833.78;;;7.82;73.55
70407;BME280;57821;52.202;0.154;2023-04-27T04:35:49;101830.38;;;7.83;74.19
70407;BME280;57821;52.202;0.154;2023-04-27T04:38:17;101824.38;;;7.84;74.20
70407;BME280;57821;52.202;0.154;2023-04-27T04:40:43;101824.44;;;7.86;73.57
70407;BME280;57821;52.202;0.154;2023-04-27T04:43:11;101821.81;;;7.84;74.32
70407;BME280;57821;52.202;0.154;2023-04-27T04:45:38;101820.97;;;7.85;74.84
70407;BME280;57821;52.202;0.154;2023-04-27T04:48:04;101825.31;;;7.88;75.08
70407;BME280;57821;52.202;0.154;2023-04-27T04:50:31;101832.22;;;7.89;74.30
70407;BME280;57821;52.202;0.154;2023-04-27T04:52:58;101832.28;;;7.90;74.51
70407;BME280;57821;52.202;0.154;2023-04-27T04:55:25;101837.50;;;7.93;74.56
70407;BME280;57821;52.202;0.154;2023-04-27T04:57:52;101832.44;;;7.96;75.15
70407;BME280;57821;52.202;0.154;2023-04-27T05:00:18;101825.56;;;7.98;74.65
70407;BME280;57821;52.202;0.154;2023-04-27T05:02:45;101833.41;;;8.01;74.98
70407;BME280;57821;52.202;0.154;2023-04-27T05:05:12;101840.34;;;8.04;74.81
70407;BME280;57821;52.202;0.154;2023-04-27T05:07:38;101824.06;;;8.06;75.21
70407;BME280;57821;52.202;0.154;2023-04-27T05:10:05;101828.44;;;8.09;75.10
70407;BME280;57821;52.202;0.154;2023-04-27T05:12:32;101823.31;;;8.12;74.70
70407;BME280;57821;52.202;0.154;2023-04-27T05:14:58;101829.41;;;8.15;75.26
70407;BME280;57821;52.202;0.154;2023-04-27T05:17:25;101832.03;;;8.17;74.72
70407;BME280;57821;52.202;0.154;2023-04-27T05:19:52;101826.97;;;8.20;74.86
70407;BME280;57821;52.202;0.154;2023-04-27T05:22:18;101829.66;;;8.24;75.00
70407;BME280;57821;52.202;0.154;2023-04-27T05:24:45;101828.81;;;8.27;74.78
70407;BME280;57821;52.202;0.154;2023-04-27T05:27:12;101831.44;;;8.29;74.29
70407;BME280;57821;52.202;0.154;2023-04-27T05:29:39;101832.44;;;8.32;75.24
70407;BME280;57821;52.202;0.154;2023-04-27T05:32:05;101829.88;;;8.34;74.63
70407;BME280;57821;52.202;0.154;2023-04-27T05:34:32;101833.41;;;8.37;74.13
70407;BME280;57821;52.202;0.154;2023-04-27T05:36:58;101830.94;;;8.42;74.78
70407;BME280;57821;52.202;0.154;2023-04-27T05:39:25;101826.69;;;8.44;74.58
70407;BME280;57821;52.202;0.154;2023-04-27T05:41:51;101831.84;;;8.45;74.14
70407;BME280;57821;52.202;0.154;2023-04-27T05:44:18;101831.94;;;8.48;74.03
70407;BME280;57821;52.202;0.154;2023-04-27T05:46:44;101831.09;;;8.49;74.01
70407;BME280;57821;52.202;0.154;2023-04-27T05:49:11;101824.22;;;8.51;74.05
70407;BME280;57821;52.202;0.154;2023-04-27T05:51:37;101826.88;;;8.53;74.24
70407;BME280;57821;52.202;0.154;2023-04-27T05:54:04;101814.84;;;8.55;74.14
70407;BME280;57821;52.202;0.154;2023-04-27T05:56:30;101810.56;;;8.55;74.22
70407;BME280;57821;52.202;0.154;2023-04-27T05:58:57;101811.47;;;8.59;74.37
70407;BME280;57821;52.202;0.154;2023-04-27T06:01:26;101809.88;;;8.64;74.43
70407;BME280;57821;52.202;0.154;2023-04-27T06:03:53;101822.84;;;8.65;74.01
70407;BME280;57821;52.202;0.154;2023-04-27T06:06:19;101819.50;;;8.71;74.47
70407;BME280;57821;52.202;0.154;2023-04-27T06:08:46;101820.47;;;8.76;74.00
70407;BME280;57821;52.202;0.154;2023-04-27T06:11:12;101834.34;;;8.81;73.80
70407;BME280;57821;52.202;0.154;2023-04-27T06:13:38;101831.84;;;8.86;73.73
70407;BME280;57821;52.202;0.154;2023-04-27T06:16:05;101835.41;;;8.89;73.69
70407;BME280;57821;52.202;0.154;2023-04-27T06:18:32;101829.44;;;8.93;73.20
70407;BME280;57821;52.202;0.154;2023-04-27T06:20:59;101830.44;;;9.00;73.11
70407;BME280;57821;52.202;0.154;2023-04-27T06:23:25;101841.81;;;9.08;72.97
70407;BME280;57821;52.202;0.154;2023-04-27T06:25:52;101841.91;;;9.13;73.00
70407;BME280;57821;52.202;0.154;2023-04-27T06:28:18;101838.50;;;9.17;72.62
70407;BME280;57821;52.202;0.154;2023-04-27T06:30:46;101840.31;;;9.21;72.03
70407;BME280;57821;52.202;0.154;2023-04-27T06:33:12;101844.72;;;9.25;71.96
70407;BME280;57821;52.202;0.154;2023-04-27T06:35:43;101838.75;;;9.29;71.75
70407;BME280;57821;52.202;0.154;2023-04-27T06:38:12;101837.94;;;9.33;71.38
70407;BME280;57821;52.202;0.154;2023-04-27T06:40:39;101838.88;;;9.35;70.82
70407;BME280;57821;52.202;0.154;2023-04-27T06:43:05;101835.47;;;9.39;71.19
70407;BME280;57821;52.202;0.154;2023-04-27T06:45:32;101835.56;;;9.43;70.87
70407;BME280;57821;52.202;0.154;2023-04-27T06:47:58;101836.53;;;9.50;71.00
70407;BME280;57821;52.202;0.154;2023-04-27T06:50:25;101831.50;;;9.58;70.58
70407;BME280;57821;52.202;0.154;2023-04-27T06:52:51;101833.41;;;9.66;70.02
70407;BME280;57821;52.202;0.154;2023-04-27T06:55:18;101831.81;;;9.76;70.34
70407;BME280;57821;52.202;0.154;2023-04-27T06:57:44;101835.47;;;9.87;69.98
70407;BME280;57821;52.202;0.154;2023-04-27T07:00:11;101838.22;;;9.98;69.72
70407;BME280;57821;52.202;0.154;2023-04-27T07:02:38;101827.09;;;10.05;69.15
70407;BME280;57821;52.202;0.154;2023-04-27T07:05:04;101822.03;;;10.14;69.31
70407;BME280;57821;52.202;0.154;2023-04-27T07:07:31;101816.13;;;10.18;68.19
70407;BME280;57821;52.202;0.154;2023-04-27T07:09:57;101817.88;;;10.19;67.73
70407;BME280;57821;52.202;0.154;2023-04-27T07:12:24;101828.25;;;10.22;68.10
70407;BME280;57821;52.202;0.154;2023-04-27T07:14:50;101819.66;;;10.26;67.22
70407;BME280;57821;52.202;0.154;2023-04-27T07:17:17;101815.41;;;10.31;67.42
70407;BME280;57821;52.202;0.154;2023-04-27T07:19:43;101813.84;;;10.41;67.31
70407;BME280;57821;52.202;0.154;2023-04-27T07:22:10;101822.56;;;10.46;67.11
70407;BME280;57821;52.202;0.154;2023-04-27T07:24:36;101814.84;;;10.50;66.52
70407;BME280;57821;52.202;0.154;2023-04-27T07:27:03;101815.84;;;10.60;65.77
70407;BME280;57821;52.202;0.154;2023-04-27T07:29:29;101816.75;;;10.66;65.43
70407;BME280;57821;52.202;0.154;2023-04-27T07:31:56;101820.31;;;10.72;65.38
70407;BME280;57821;52.202;0.154;2023-04-27T07:34:23;101804.84;;;10.81;65.32
70407;BME280;57821;52.202;0.154;2023-04-27T07:36:50;101804.94;;;10.88;64.71
70407;BME280;57821;52.202;0.154;2023-04-27T07:39:17;101805.91;;;10.95;64.05
70407;BME280;57821;52.202;0.154;2023-04-27T07:41:43;101811.19;;;11.05;63.81
70407;BME280;57821;52.202;0.154;2023-04-27T07:44:10;101815.59;;;11.14;63.11
70407;BME280;57821;52.202;0.154;2023-04-27T07:46:36;101818.34;;;11.26;62.63
70407;BME280;57821;52.202;0.154;2023-04-27T07:49:03;101807.19;;;11.36;62.60
70407;BME280;57821;52.202;0.154;2023-04-27T07:51:29;101809.03;;;11.46;61.88
70407;BME280;57821;52.202;0.154;2023-04-27T07:53:56;101810.84;;;11.57;61.68
70407;BME280;57821;52.202;0.154;2023-04-27T07:56:22;101811.78;;;11.65;60.87
70407;BME280;57821;52.202;0.154;2023-04-27T07:58:49;101817.91;;;11.73;60.12
70407;BME280;57821;52.202;0.154;2023-04-27T08:01:15;101822.34;;;11.83;60.02
70407;BME280;57821;52.202;0.154;2023-04-27T08:03:44;101823.28;;;11.91;59.22
70407;BME280;57821;52.202;0.154;2023-04-27T08:06:11;101818.97;;;11.94;58.23
70407;BME280;57821;52.202;0.154;2023-04-27T08:08:38;101813.84;;;11.99;58.39
70407;BME280;57821;52.202;0.154;2023-04-27T08:11:08;101808.69;;;12.05;56.84
70407;BME280;57821;52.202;0.154;2023-04-27T08:13:35;101806.97;;;12.12;57.22
70407;BME280;57821;52.202;0.154;2023-04-27T08:16:01;101804.41;;;12.19;57.64
70407;BME280;57821;52.202;0.154;2023-04-27T08:18:28;101804.47;;;12.25;56.43
70407;BME280;57821;52.202;0.154;2023-04-27T08:20:54;101809.69;;;12.31;56.04
70407;BME280;57821;52.202;0.154;2023-04-27T08:23:21;101804.53;;;12.34;55.64
70407;BME280;57821;52.202;0.154;2023-04-27T08:25:47;101813.22;;;12.40;56.37
70407;BME280;57821;52.202;0.154;2023-04-27T08:28:14;101820.19;;;12.47;55.79
70407;BME280;57821;52.202;0.154;2023-04-27T08:30:41;101819.34;;;12.54;55.27
70407;BME280;57821;52.202;0.154;2023-04-27T08:33:07;101817.66;;;12.60;55.15
70407;BME280;57821;52.202;0.154;2023-04-27T08:35:34;101813.31;;;12.64;54.67
70407;BME280;57821;52.202;0.154;2023-04-27T08:38:01;101818.56;;;12.70;54.74
70407;BME280;57821;52.202;0.154;2023-04-27T08:40:27;101816.88;;;12.75;55.00
70407;BME280;57821;52.202;0.154;2023-04-27T08:42:56;101809.09;;;12.81;54.88
70407;BME280;57821;52.202;0.154;2023-04-27T08:45:23;101803.03;;;12.88;54.60
70407;BME280;57821;52.202;0.154;2023-04-27T08:47:50;101813.47;;;12.97;54.95
70407;BME280;57821;52.202;0.154;2023-04-27T08:50:17;101815.25;;;13.07;54.25
70407;BME280;57821;52.202;0.154;2023-04-27T08:52:45;101815.28;;;13.16;55.07
70407;BME280;57821;52.202;0.154;2023-04-27T08:55:13;101809.25;;;13.27;54.41
70407;BME280;57821;52.202;0.154;2023-04-27T08:57:58;101810.13;;;13.35;54.18
70407;BME280;57821;52.202;0.154;2023-04-27T09:00:25;101811.88;;;13.45;53.31
70407;BME280;57821;52.202;0.154;2023-04-27T09:02:52;101815.38;;;13.61;53.26
70407;BME280;57821;52.202;0.154;2023-04-27T09:05:21;101807.56;;;13.73;52.66
70407;BME280;57821;52.202;0.154;2023-04-27T09:07:58;101812.75;;;13.86;51.59
70407;BME280;57821;52.202;0.154;2023-04-27T09:10:24;101812.75;;;13.95;51.93
70407;BME280;57821;52.202;0.154;2023-04-27T09:12:58;101808.38;;;14.04;51.58
70407;BME280;57821;52.202;0.154;2023-04-27T09:15:26;101796.22;;;14.15;51.21
70407;BME280;57821;52.202;0.154;2023-04-27T09:17:56;101793.59;;;14.24;50.65
70407;BME280;57821;52.202;0.154;2023-04-27T09:20:23;101790.06;;;14.34;50.72
70407;BME280;57821;52.202;0.154;2023-04-27T09:22:51;101784.84;;;14.46;49.98
70407;BME280;57821;52.202;0.154;2023-04-27T09:25:29;101760.44;;;14.58;49.36
70407;BME280;57821;52.202;0.154;2023-04-27T09:27:57;101766.47;;;14.73;50.10
70407;BME280;57821;52.202;0.154;2023-04-27T09:30:25;101762.91;;;14.90;49.82
70407;BME280;57821;52.202;0.154;2023-04-27T09:32:59;101764.53;;;15.09;48.97
70407;BME280;57821;52.202;0.154;2023-04-27T09:35:32;101766.19;;;15.25;48.83
70407;BME280;57821;52.202;0.154;2023-04-27T09:37:59;101760.88;;;15.37;48.38
70407;BME280;57821;52.202;0.154;2023-04-27T09:40:27;101774.72;;;15.48;47.69
70407;BME280;57821;52.202;0.154;2023-04-27T09:42:55;101766.88;;;15.54;47.63
70407;BME280;57821;52.202;0.154;2023-04-27T09:45:23;101769.44;;;15.56;46.91
70407;BME280;57821;52.202;0.154;2023-04-27T09:47:50;101763.34;;;15.57;46.90
70407;BME280;57821;52.202;0.154;2023-04-27T09:50:17;101752.06;;;15.55;46.94
70407;BME280;57821;52.202;0.154;2023-04-27T09:52:45;101733.72;;;15.59;47.68
70407;BME280;57821;52.202;0.154;2023-04-27T09:55:19;101721.34;;;15.74;46.23
70407;BME280;57821;52.202;0.154;2023-04-27T09:58:03;101726.41;;;15.93;46.71
70407;BME280;57821;52.202;0.154;2023-04-27T10:00:41;101733.94;;;16.22;45.24
70407;BME280;57821;52.202;0.154;2023-04-27T10:03:40;101731.03;;;16.45;44.34
70407;BME280;57821;52.202;0.154;2023-04-27T10:06:42;101727.91;;;16.86;43.70
70407;BME280;57821;52.202;0.154;2023-04-27T10:09:20;101718.84;;;17.07;43.96
70407;BME280;57821;52.202;0.154;2023-04-27T10:11:47;101722.06;;;17.25;44.09
70407;BME280;57821;52.202;0.154;2023-04-27T10:14:18;101727.94;;;17.41;43.36
70407;BME280;57821;52.202;0.154;2023-04-27T10:16:53;101716.50;;;17.44;42.11
70407;BME280;57821;52.202;0.154;2023-04-27T10:19:21;101717.28;;;17.49;42.88
70407;BME280;57821;52.202;0.154;2023-04-27T10:24:30;101709.22;;;17.64;42.59
70407;BME280;57821;52.202;0.154;2023-04-27T10:27:08;101705.63;;;17.70;40.28
70407;BME280;57821;52.202;0.154;2023-04-27T10:29:43;101706.53;;;17.65;41.32
70407;BME280;57821;52.202;0.154;2023-04-27T10:32:20;101705.75;;;17.62;40.66
70407;BME280;57821;52.202;0.154;2023-04-27T10:34:46;101705.91;;;17.51;40.36
70407;BME280;57821;52.202;0.154;2023-04-27T10:37:14;101711.34;;;17.39;40.89
70407;BME280;57821;52.202;0.154;2023-04-27T10:39:42;101715.94;;;17.25;40.62
70407;BME280;57821;52.202;0.154;2023-04-27T10:42:25;101705.03;;;16.97;40.72
70407;BME280;57821;52.202;0.154;2023-04-27T10:44:55;101704.41;;;16.81;40.53
70407;BME280;57821;52.202;0.154;2023-04-27T10:47:22;101700.19;;;16.70;41.42
70407;BME280;57821;52.202;0.154;2023-04-27T10:49:52;101701.19;;;16.61;41.35
70407;BME280;57821;52.202;0.154;2023-04-27T10:52:19;101689.94;;;16.53;41.74
70407;BME280;57821;52.202;0.154;2023-04-27T10:54:45;101686.53;;;16.47;41.81
70407;BME280;57821;52.202;0.154;2023-04-27T10:57:12;101683.84;;;16.51;42.45
70407;BME280;57821;52.202;0.154;2023-04-27T10:59:51;101691.63;;;16.57;42.03
70407;BME280;57821;52.202;0.154;2023-04-27T11:02:26;101682.91;;;16.60;41.45
70407;BME280;57821;52.202;0.154;2023-04-27T11:04:54;101686.44;;;16.53;41.41
70407;BME280;57821;52.202;0.154;2023-04-27T11:07:25;101674.34;;;16.42;41.58
70407;BME280;57821;52.202;0.154;2023-04-27T11:09:52;101669.09;;;16.42;42.31
70407;BME280;57821;52.202;0.154;2023-04-27T11:12:19;101677.72;;;16.51;41.56
70407;BME280;57821;52.202;0.154;2023-04-27T11:14:46;101664.66;;;16.49;40.97
70407;BME280;57821;52.202;0.154;2023-04-27T11:17:13;101661.28;;;16.41;40.75
70407;BME280;57821;52.202;0.154;2023-04-27T11:19:48;101666.69;;;16.27;40.87
70407;BME280;57821;52.202;0.154;2023-04-27T11:22:15;101658.09;;;16.18;41.53
70407;BME280;57821;52.202;0.154;2023-04-27T11:24:49;101656.50;;;16.06;41.45
70407;BME280;57821;52.202;0.154;2023-04-27T11:27:16;101642.59;;;16.02;41.31
70407;BME280;57821;52.202;0.154;2023-04-27T11:29:43;101640.88;;;16.00;41.89
70407;BME280;57821;52.202;0.154;2023-04-27T11:32:20;101642.69;;;15.95;41.58
70407;BME280;57821;52.202;0.154;2023-04-27T11:34:51;101638.28;;;15.97;41.82
70407;BME280;57821;52.202;0.154;2023-04-27T11:37:25;101636.47;;;16.02;41.91
70407;BME280;57821;52.202;0.154;2023-04-27T11:39:58;101642.63;;;15.99;41.52
70407;BME280;57821;52.202;0.154;2023-04-27T11:42:27;101635.72;;;15.95;41.23
70407;BME280;57821;52.202;0.154;2023-04-27T11:45:04;101629.63;;;15.92;41.92
70407;BME280;57821;52.202;0.154;2023-04-27T11:47:32;101625.31;;;15.89;40.85
70407;BME280;57821;52.202;0.154;2023-04-27T11:50:01;101620.16;;;15.83;41.29
70407;BME280;57821;52.202;0.154;2023-04-27T11:52:28;101620.13;;;15.85;41.10
70407;BME280;57821;52.202;0.154;2023-04-27T11:54:55;101607.06;;;15.85;40.81
70407;BME280;57821;52.202;0.154;2023-04-27T11:57:25;101606.19;;;15.84;40.82
70407;BME280;57821;52.202;0.154;2023-04-27T11:59:52;101603.63;;;15.80;40.87
70407;BME280;57821;52.202;0.154;2023-04-27T12:02:19;101599.34;;;15.74;41.08
70407;BME280;57821;52.202;0.154;2023-04-27T12:04:47;101602.81;;;15.73;40.38
70407;BME280;57821;52.202;0.154;2023-04-27T12:07:13;101588.94;;;15.70;41.16
70407;BME280;57821;52.202;0.154;2023-04-27T12:09:40;101575.78;;;15.76;40.10
70407;BME280;57821;52.202;0.154;2023-04-27T12:12:07;101575.63;;;15.89;39.99
70407;BME280;57821;52.202;0.154;2023-04-27T12:14:33;101577.22;;;16.01;39.72
70407;BME280;57821;52.202;0.154;2023-04-27T12:17:00;101578.78;;;16.14;39.08
70407;BME280;57821;52.202;0.154;2023-04-27T12:19:26;101587.34;;;16.25;38.80
70407;BME280;57821;52.202;0.154;2023-04-27T12:21:54;101594.13;;;16.38;38.71
70407;BME280;57821;52.202;0.154;2023-04-27T12:24:20;101594.91;;;16.48;37.66
70407;BME280;57821;52.202;0.154;2023-04-27T12:26:47;101593.09;;;16.52;38.32
70407;BME280;57821;52.202;0.154;2023-04-27T12:29:14;101586.91;;;16.56;38.17
70407;BME280;57821;52.202;0.154;2023-04-27T12:31:40;101588.56;;;16.63;37.97
70407;BME280;57821;52.202;0.154;2023-04-27T12:34:07;101587.69;;;16.64;37.56
70407;BME280;57821;52.202;0.154;2023-04-27T12:36:33;101569.41;;;16.61;37.74
70407;BME280;57821;52.202;0.154;2023-04-27T12:39:18;101565.94;;;16.57;37.59
70407;BME280;57821;52.202;0.154;2023-04-27T12:41:47;101567.84;;;16.48;37.65
70407;BME280;57821;52.202;0.154;2023-04-27T12:44:14;101567.88;;;16.44;37.74
70407;BME280;57821;52.202;0.154;2023-04-27T12:46:42;101562.69;;;16.41;37.05
70407;BME280;57821;52.202;0.154;2023-04-27T12:49:10;101556.72;;;16.33;37.09
70407;BME280;57821;52.202;0.154;2023-04-27T12:51:37;101553.38;;;16.24;37.01
70407;BME280;57821;52.202;0.154;2023-04-27T12:54:05;101554.41;;;16.11;37.42
70407;BME280;57821;52.202;0.154;2023-04-27T12:56:32;101551.09;;;15.98;37.66
70407;BME280;57821;52.202;0.154;2023-04-27T12:58:59;101556.53;;;15.83;37.36
70407;BME280;57821;52.202;0.154;2023-04-27T13:01:26;101557.56;;;15.68;37.41